This is the latest recevied weather packets stored in our database for station/object PY3MO-11. If no packets are shown the sender has not sent any weather packets the latest 1 day(s).
| Time | Temp. | Humidity | Pressure | Rain* | Wind** | Luminosity | Snow |
|---|---|---|---|---|---|---|---|
| 1778103237 | 22.22° C | 65% | 1016.5 hPa | 0 mm | - | - | - |
| 1778102937 | 22.78° C | 65% | 1016.5 hPa | 0 mm | - | - | - |
| 1778102637 | 22.78° C | 64% | 1016.5 hPa | 0 mm | - | - | - |
| 1778101138 | 23.89° C | 62% | 1016.5 hPa | 0 mm | - | - | - |
| 1778100838 | 23.89° C | 62% | 1016.4 hPa | 0 mm | - | - | - |
| 1778099037 | 25° C | 59% | 1016.8 hPa | 0 mm | - | - | - |
| 1778098138 | 26.11° C | 54% | 1016.8 hPa | 0 mm | - | - | - |
| 1778097838 | 26.67° C | 53% | 1016.9 hPa | 0 mm | - | - | - |
| 1778096037 | 27.78° C | 47% | 1016.7 hPa | 0 mm | - | - | - |
| 1778094538 | 28.33° C | 48% | 1016.7 hPa | 0 mm | - | - | - |
| 1778094238 | 27.78° C | 48% | 1016.7 hPa | 0 mm | - | - | - |
| 1778092437 | 28.33° C | 44% | 1016.8 hPa | 0 mm | - | - | - |
| 1778090638 | 28.89° C | 44% | 1017.1 hPa | 0 mm | - | - | - |
| 1778088837 | 28.89° C | 45% | 1017.2 hPa | 0 mm | - | - | - |
| 1778088539 | 28.89° C | 44% | 1017.4 hPa | 0 mm | - | - | - |
| 1778087338 | 29.44° C | 44% | 1017.7 hPa | 0 mm | - | - | - |
| 1778087038 | 28.89° C | 44% | 1017.7 hPa | 0 mm | - | - | - |
| 1778086738 | 28.89° C | 44% | 1017.7 hPa | 0 mm | - | - | - |
| 1778084938 | 28.33° C | 48% | 1018.1 hPa | 0 mm | - | - | - |
| 1778084038 | 28.33° C | 49% | 1018.4 hPa | 0 mm | - | - | - |
| 1778083437 | 27.78° C | 50% | 1018.6 hPa | 0 mm | - | - | - |
| 1778083139 | 28.33° C | 50% | 1018.8 hPa | 0 mm | - | - | - |
| 1778081639 | 27.78° C | 51% | 1019.3 hPa | 0 mm | - | - | - |
| 1778080138 | 26.11° C | 60% | 1019.4 hPa | 0 mm | - | - | - |
| 1778079838 | 26.11° C | 59% | 1019.5 hPa | 0 mm | - | - | - |
* Rain latest hour (hover to see other rain measurements)
** Current wind speed in m/s (hover to see current wind gust speed)